Time;durP1;ratioP1;P1;durP2;ratioP2;P2;SDS_P1;SDS_P2;PMS_P1;PMS_P2;Temp;Humidity;BMP_temperature;BMP_pressure;BME280_temperature;BME280_humidity;BME280_pressure;Samples;Min_cycle;Max_cycle;Signal;HPM_P1;HPM_P2
2023/01/23 00:01:13;;;;;;;35.27;25.97;;;2.50;99.90;;;;;;4973951;28;20202;-44
2023/01/23 00:03:39;;;;;;;33.00;26.67;;;2.60;99.90;;;;;;4968102;28;20187;-43
2023/01/23 00:06:13;;;;;;;29.70;25.80;;;2.50;99.90;;;;;;4971376;28;20351;-45
2023/01/23 00:08:41;;;;;;;29.13;25.88;;;2.50;99.90;;;;;;4982863;28;20226;-43
2023/01/23 00:11:10;;;;;;;33.28;26.38;;;2.50;99.90;;;;;;4971660;28;20661;-45
2023/01/23 00:13:35;;;;;;;33.35;26.00;;;2.50;99.90;;;;;;4969573;28;20232;-43
2023/01/23 00:16:06;;;;;;;30.90;26.33;;;2.50;99.90;;;;;;4967138;28;20196;-43
2023/01/23 00:18:31;;;;;;;30.88;25.33;;;2.50;99.90;;;;;;4972338;28;20457;-43
2023/01/23 00:20:57;;;;;;;33.10;25.53;;;2.60;99.90;;;;;;4978205;28;20186;-42
2023/01/23 00:23:23;;;;;;;31.23;24.90;;;2.60;99.90;;;;;;4964290;28;20187;-42
2023/01/23 00:25:48;;;;;;;32.93;25.90;;;2.60;99.90;;;;;;4980450;28;20274;-44
2023/01/23 00:28:14;;;;;;;31.13;25.33;;;2.60;99.90;;;;;;4967875;28;20757;-42
2023/01/23 00:30:39;;;;;;;34.47;25.47;;;2.60;99.90;;;;;;4972640;28;20195;-43
2023/01/23 00:33:05;;;;;;;36.50;26.43;;;2.60;99.90;;;;;;4963268;28;20207;-42
2023/01/23 00:35:34;;;;;;;29.40;24.77;;;2.50;99.90;;;;;;4968570;28;20187;-42
2023/01/23 00:37:59;;;;;;;28.73;24.40;;;2.50;99.90;;;;;;4973472;28;20684;-43
2023/01/23 00:40:25;;;;;;;30.97;26.37;;;2.50;99.90;;;;;;4969272;28;20191;-43
2023/01/23 00:42:52;;;;;;;32.53;25.40;;;2.60;99.90;;;;;;4973770;28;20223;-48
2023/01/23 00:45:17;;;;;;;33.25;26.25;;;2.50;99.90;;;;;;4963990;28;20728;-45
2023/01/23 00:47:43;;;;;;;31.17;25.27;;;2.50;99.90;;;;;;4959875;28;20282;-42
2023/01/23 00:50:09;;;;;;;32.03;25.07;;;2.60;99.90;;;;;;4966360;28;20197;-47
2023/01/23 00:52:35;;;;;;;28.90;25.38;;;2.60;99.90;;;;;;4971471;28;20637;-45
2023/01/23 00:55:01;;;;;;;28.90;25.80;;;2.60;99.90;;;;;;4975290;28;20214;-44
2023/01/23 00:57:27;;;;;;;31.75;26.23;;;2.60;99.90;;;;;;4966624;28;20240;-45
2023/01/23 00:59:53;;;;;;;28.27;24.80;;;2.60;99.90;;;;;;4974761;28;20275;-44
2023/01/23 01:02:18;;;;;;;33.83;26.30;;;2.60;99.90;;;;;;4967802;28;20527;-44
2023/01/23 01:04:44;;;;;;;29.90;25.60;;;2.50;99.90;;;;;;4961810;28;20235;-43
2023/01/23 01:07:09;;;;;;;28.07;24.50;;;2.60;99.90;;;;;;4969933;28;20187;-42
2023/01/23 01:09:35;;;;;;;31.17;25.37;;;2.60;99.90;;;;;;4968990;28;20764;-47
2023/01/23 01:12:00;;;;;;;29.83;24.00;;;2.60;99.90;;;;;;4971188;28;20766;-43
2023/01/23 01:14:26;;;;;;;29.57;24.27;;;2.50;99.90;;;;;;4963974;28;20223;-44
2023/01/23 01:16:52;;;;;;;26.90;23.40;;;2.50;99.90;;;;;;4966834;28;20183;-46
2023/01/23 01:19:18;;;;;;;28.13;24.63;;;2.50;99.90;;;;;;4975534;28;20278;-44
2023/01/23 01:21:43;;;;;;;31.30;25.17;;;2.50;99.90;;;;;;4975924;28;20194;-44
2023/01/23 01:24:09;;;;;;;26.60;23.90;;;2.60;99.90;;;;;;4968293;28;20636;-44
2023/01/23 01:26:35;;;;;;;28.30;24.80;;;2.60;99.90;;;;;;4977204;28;20482;-44
2023/01/23 01:29:01;;;;;;;29.40;24.53;;;2.60;99.90;;;;;;4967763;28;20499;-44
2023/01/23 01:31:27;;;;;;;31.40;24.65;;;2.60;99.90;;;;;;4974833;28;20223;-45
2023/01/23 01:33:53;;;;;;;31.20;24.27;;;2.60;99.90;;;;;;4969459;28;20215;-43
2023/01/23 01:36:20;;;;;;;27.47;23.33;;;2.60;99.90;;;;;;4969037;28;20191;-44
2023/01/23 01:38:46;;;;;;;27.90;24.70;;;2.60;99.90;;;;;;4975579;28;20195;-48
2023/01/23 01:41:13;;;;;;;28.20;24.20;;;2.60;99.90;;;;;;4972747;28;20232;-46
2023/01/23 01:43:39;;;;;;;28.85;24.05;;;2.70;99.90;;;;;;4973851;28;21168;-45
2023/01/23 01:46:04;;;;;;;28.77;24.08;;;2.60;99.90;;;;;;4972840;28;20198;-43
2023/01/23 01:48:32;;;;;;;29.67;25.77;;;2.60;99.90;;;;;;4979814;28;20196;-43
2023/01/23 01:51:01;;;;;;;29.10;25.00;;;2.60;99.90;;;;;;4980057;28;20187;-44
2023/01/23 01:53:29;;;;;;;26.45;23.15;;;2.60;99.90;;;;;;4962903;28;20787;-44
2023/01/23 01:55:56;;;;;;;30.13;24.08;;;2.60;99.90;;;;;;4973916;28;20210;-42
2023/01/23 01:58:22;;;;;;;27.38;23.10;;;2.60;99.90;;;;;;4963820;28;20571;-42
2023/01/23 02:00:47;;;;;;;29.77;23.80;;;2.60;99.90;;;;;;4956595;28;20199;-44
2023/01/23 02:03:15;;;;;;;26.77;23.33;;;2.60;99.90;;;;;;4972278;28;20454;-43
2023/01/23 02:05:47;;;;;;;29.98;24.33;;;2.60;99.90;;;;;;4963824;28;20207;-46
2023/01/23 02:08:34;;;;;;;28.27;24.10;;;2.60;99.90;;;;;;4969058;28;20269;-45
2023/01/23 02:11:02;;;;;;;27.15;24.23;;;2.60;99.90;;;;;;4969717;28;20511;-48
2023/01/23 02:13:34;;;;;;;29.10;24.50;;;2.60;99.90;;;;;;4959738;28;20559;-45
2023/01/23 02:16:09;;;;;;;26.10;23.27;;;2.60;99.90;;;;;;4966560;28;20246;-45
2023/01/23 02:18:38;;;;;;;28.08;24.75;;;2.60;99.90;;;;;;4962042;28;20483;-43
2023/01/23 02:21:08;;;;;;;27.20;24.30;;;2.60;99.90;;;;;;4974031;28;20708;-44
2023/01/23 02:23:42;;;;;;;27.55;24.33;;;2.60;99.90;;;;;;4966044;28;20227;-43
2023/01/23 02:26:24;;;;;;;26.30;23.48;;;2.70;99.90;;;;;;4967114;28;20424;-44
2023/01/23 02:28:52;;;;;;;30.25;24.50;;;2.60;99.90;;;;;;4970273;28;20183;-45
2023/01/23 02:31:18;;;;;;;26.48;23.67;;;2.60;99.90;;;;;;4968054;28;20191;-43
2023/01/23 02:33:50;;;;;;;27.50;23.40;;;2.70;99.90;;;;;;4972801;28;20362;-42
2023/01/23 02:36:18;;;;;;;26.13;23.38;;;2.70;99.90;;;;;;4976530;28;20799;-42
2023/01/23 02:38:53;;;;;;;27.10;23.77;;;2.70;99.90;;;;;;4963342;28;20241;-44
2023/01/23 02:41:26;;;;;;;27.20;24.35;;;2.60;99.90;;;;;;4967184;28;20915;-43
2023/01/23 02:43:54;;;;;;;27.48;23.55;;;2.70;99.90;;;;;;4973113;28;20241;-42
2023/01/23 02:46:20;;;;;;;27.00;24.20;;;2.70;99.90;;;;;;4980248;28;20277;-43
2023/01/23 02:48:47;;;;;;;25.50;22.77;;;2.70;99.90;;;;;;4968705;28;20195;-44
2023/01/23 02:51:13;;;;;;;26.05;23.45;;;2.70;99.90;;;;;;4965669;28;20642;-43
2023/01/23 02:53:38;;;;;;;26.97;24.07;;;2.70;99.90;;;;;;4970138;28;20231;-44
2023/01/23 02:56:05;;;;;;;26.70;23.87;;;2.70;99.90;;;;;;4962939;28;20500;-41
2023/01/23 03:01:14;;;;;;;27.33;24.42;;;2.70;99.90;;;;;;4965125;28;20244;-48
2023/01/23 03:03:43;;;;;;;27.03;24.17;;;2.70;99.90;;;;;;4965368;28;20561;-44
2023/01/23 03:06:09;;;;;;;28.33;23.75;;;2.70;99.90;;;;;;4962262;28;20177;-44
2023/01/23 03:08:46;;;;;;;26.70;23.83;;;2.70;99.90;;;;;;4973223;28;20180;-43
2023/01/23 03:11:13;;;;;;;26.27;23.70;;;2.70;99.90;;;;;;4968084;28;20259;-43
2023/01/23 03:13:39;;;;;;;26.75;23.92;;;2.70;99.90;;;;;;4974495;28;20951;-44
2023/01/23 03:16:06;;;;;;;27.73;24.75;;;2.70;99.90;;;;;;4962807;28;20657;-43
2023/01/23 03:18:32;;;;;;;25.70;23.00;;;2.70;99.90;;;;;;4961885;28;20601;-42
2023/01/23 03:21:03;;;;;;;27.95;24.83;;;2.70;99.90;;;;;;4970849;28;20176;-45
2023/01/23 03:23:29;;;;;;;25.80;23.23;;;2.60;99.90;;;;;;4974975;28;20201;-43
2023/01/23 03:25:57;;;;;;;27.52;24.60;;;2.60;99.90;;;;;;4978779;28;20207;-46
2023/01/23 03:31:12;;;;;;;27.20;24.30;;;2.60;99.90;;;;;;4965904;28;20851;-43
2023/01/23 03:33:38;;;;;;;26.63;23.65;;;2.70;99.90;;;;;;4973437;28;20245;-43
2023/01/23 03:36:06;;;;;;;27.48;24.02;;;2.60;99.90;;;;;;4976381;28;20659;-44
2023/01/23 03:38:32;;;;;;;27.15;24.10;;;2.60;99.90;;;;;;4976132;28;20195;-44
2023/01/23 03:43:42;;;;;;;28.45;24.00;;;2.60;99.90;;;;;;4971621;28;20499;-42
2023/01/23 03:46:08;;;;;;;27.40;23.83;;;2.60;99.90;;;;;;4965653;28;20655;-42
2023/01/23 03:48:33;;;;;;;28.00;24.97;;;2.60;99.90;;;;;;4974966;28;20188;-44
2023/01/23 03:50:59;;;;;;;27.97;23.50;;;2.60;99.90;;;;;;4969454;28;20228;-42
2023/01/23 03:53:25;;;;;;;29.00;24.60;;;2.60;99.90;;;;;;4972461;28;20230;-46
2023/01/23 03:55:50;;;;;;;27.33;24.30;;;2.60;99.90;;;;;;4971642;28;20195;-44
2023/01/23 03:58:16;;;;;;;27.37;24.10;;;2.60;99.90;;;;;;4972008;28;20195;-43
2023/01/23 04:00:41;;;;;;;27.63;24.80;;;2.60;99.90;;;;;;4977004;28;20191;-45
2023/01/23 04:03:07;;;;;;;27.70;24.70;;;2.60;99.90;;;;;;4975044;28;20684;-46
2023/01/23 04:05:33;;;;;;;28.03;24.87;;;2.60;99.90;;;;;;4973016;28;20222;-44
2023/01/23 04:07:58;;;;;;;26.57;23.20;;;2.70;99.90;;;;;;4967889;28;20192;-45
2023/01/23 04:10:24;;;;;;;27.77;24.80;;;2.60;99.90;;;;;;4970122;28;20437;-45
2023/01/23 04:12:50;;;;;;;27.10;24.20;;;2.60;99.90;;;;;;4965793;28;20226;-44
2023/01/23 04:15:15;;;;;;;27.80;24.40;;;2.60;99.90;;;;;;4969401;28;20194;-44
2023/01/23 04:17:41;;;;;;;28.23;25.03;;;2.60;99.90;;;;;;4974311;28;20196;-47
2023/01/23 04:20:07;;;;;;;27.13;23.97;;;2.70;99.90;;;;;;4964353;28;20541;-45
2023/01/23 04:22:33;;;;;;;27.00;23.60;;;2.60;99.90;;;;;;4978587;28;20249;-45
2023/01/23 04:24:59;;;;;;;27.57;24.57;;;2.70;99.90;;;;;;4969417;28;20195;-45
2023/01/23 04:27:24;;;;;;;28.27;24.73;;;2.70;99.90;;;;;;4979654;28;20217;-46
2023/01/23 04:29:50;;;;;;;27.17;24.27;;;2.60;99.90;;;;;;4970453;28;20505;-44
2023/01/23 04:32:15;;;;;;;28.00;24.43;;;2.60;99.90;;;;;;4971920;28;20217;-44
2023/01/23 04:34:41;;;;;;;27.60;24.77;;;2.60;99.90;;;;;;4957925;28;20207;-47
2023/01/23 04:37:06;;;;;;;27.17;24.40;;;2.60;99.90;;;;;;4968550;28;20584;-42
2023/01/23 04:39:32;;;;;;;28.77;23.93;;;2.60;99.90;;;;;;4979918;28;20179;-46
2023/01/23 04:41:58;;;;;;;27.77;23.97;;;2.60;99.90;;;;;;4974694;28;20235;-49
2023/01/23 04:44:24;;;;;;;27.63;24.80;;;2.60;99.90;;;;;;4970481;28;20309;-45
2023/01/23 04:46:54;;;;;;;27.90;23.85;;;2.60;99.90;;;;;;4976418;28;20190;-45
2023/01/23 04:49:24;;;;;;;26.35;23.55;;;2.60;99.90;;;;;;4946890;28;20734;-45
2023/01/23 04:51:51;;;;;;;29.88;24.50;;;2.60;99.90;;;;;;4965045;28;20230;-44
2023/01/23 04:54:18;;;;;;;26.33;23.75;;;2.60;99.90;;;;;;4969924;28;20231;-43
2023/01/23 04:56:44;;;;;;;26.50;23.25;;;2.60;99.90;;;;;;4972275;28;20960;-44
2023/01/23 04:59:10;;;;;;;28.45;23.60;;;2.60;99.90;;;;;;4977637;28;20195;-43
2023/01/23 05:01:36;;;;;;;26.17;23.27;;;2.60;99.90;;;;;;4970731;28;20275;-44
2023/01/23 05:04:03;;;;;;;28.13;23.30;;;2.60;99.90;;;;;;4977033;28;20671;-43
2023/01/23 05:06:29;;;;;;;31.10;23.63;;;2.70;99.90;;;;;;4967981;28;20561;-43
2023/01/23 05:08:54;;;;;;;27.10;24.13;;;2.60;99.90;;;;;;4965234;28;20201;-43
2023/01/23 05:11:20;;;;;;;26.60;23.77;;;2.60;99.90;;;;;;4964319;28;20189;-46
2023/01/23 05:13:45;;;;;;;28.00;24.40;;;2.60;99.90;;;;;;4966235;28;20213;-42
2023/01/23 05:16:11;;;;;;;27.43;22.57;;;2.60;99.90;;;;;;4964665;28;20638;-45
2023/01/23 05:18:37;;;;;;;28.00;24.77;;;2.60;99.90;;;;;;4970016;28;20650;-47
2023/01/23 05:21:02;;;;;;;26.93;24.03;;;2.60;99.90;;;;;;4973974;28;20632;-43
2023/01/23 05:23:28;;;;;;;30.00;24.40;;;2.60;99.90;;;;;;4969810;28;20206;-45
2023/01/23 05:25:54;;;;;;;29.80;23.77;;;2.70;99.90;;;;;;4978269;28;20206;-43
2023/01/23 05:28:19;;;;;;;29.17;24.13;;;2.60;99.90;;;;;;4969850;28;20199;-44
2023/01/23 05:30:45;;;;;;;30.50;24.13;;;2.70;99.90;;;;;;4975855;28;20733;-43
2023/01/23 05:33:11;;;;;;;31.25;24.80;;;2.60;99.90;;;;;;4970596;28;20829;-43
2023/01/23 05:35:38;;;;;;;30.63;24.97;;;2.60;99.90;;;;;;4973016;28;20186;-43
2023/01/23 05:38:04;;;;;;;31.52;24.75;;;2.70;99.90;;;;;;4981255;28;20184;-46
2023/01/23 05:40:29;;;;;;;27.90;24.00;;;2.70;99.90;;;;;;4981035;28;20531;-44
2023/01/23 05:42:55;;;;;;;30.37;24.23;;;2.70;99.90;;;;;;4981107;28;20414;-44
2023/01/23 05:45:21;;;;;;;30.03;24.30;;;2.70;99.90;;;;;;4981129;28;20230;-47
2023/01/23 05:47:46;;;;;;;33.60;26.33;;;2.70;99.90;;;;;;4980967;28;20760;-45
2023/01/23 05:50:17;;;;;;;32.90;25.23;;;2.70;99.90;;;;;;4981288;28;20187;-46
2023/01/23 05:52:44;;;;;;;34.60;24.65;;;2.70;99.90;;;;;;4980774;28;20193;-44
2023/01/23 05:55:10;;;;;;;33.03;25.98;;;2.70;99.90;;;;;;4981067;28;20179;-45
2023/01/23 05:57:36;;;;;;;33.30;24.33;;;2.70;99.90;;;;;;4968267;28;20200;-42
2023/01/23 06:00:04;;;;;;;35.67;26.57;;;2.70;99.90;;;;;;4976825;28;20437;-43
2023/01/23 06:02:30;;;;;;;38.17;26.35;;;2.70;99.90;;;;;;4968674;28;20632;-43
2023/01/23 06:04:56;;;;;;;35.03;25.67;;;2.70;99.90;;;;;;4970522;28;20279;-45
2023/01/23 06:07:21;;;;;;;32.33;26.10;;;2.70;99.90;;;;;;4980442;28;20194;-43
2023/01/23 06:09:47;;;;;;;34.60;25.40;;;2.60;99.90;;;;;;4960610;28;20214;-45
2023/01/23 06:12:12;;;;;;;36.80;27.23;;;2.60;99.90;;;;;;4980190;28;20261;-44
2023/01/23 06:14:38;;;;;;;38.93;31.50;;;2.60;99.90;;;;;;4980340;28;20258;-44
2023/01/23 06:17:05;;;;;;;35.17;26.17;;;2.60;99.90;;;;;;4980935;28;20218;-46
2023/01/23 06:19:31;;;;;;;34.33;27.38;;;2.60;99.90;;;;;;4969206;28;20747;-45
2023/01/23 06:21:56;;;;;;;31.80;25.80;;;2.60;99.90;;;;;;4974676;28;20273;-47
2023/01/23 06:24:22;;;;;;;45.20;40.33;;;2.60;99.90;;;;;;4979375;28;20611;-43
2023/01/23 06:26:47;;;;;;;37.93;28.90;;;2.70;99.90;;;;;;4979355;28;20191;-44
2023/01/23 06:29:13;;;;;;;30.57;26.10;;;2.70;99.90;;;;;;4980294;28;20550;-45
2023/01/23 06:31:39;;;;;;;35.50;24.70;;;2.70;99.90;;;;;;4973358;28;20227;-45
2023/01/23 06:34:05;;;;;;;34.60;27.47;;;2.60;99.90;;;;;;4973343;28;20310;-45
2023/01/23 06:36:32;;;;;;;35.15;27.23;;;2.70;99.90;;;;;;4967112;28;20440;-43
2023/01/23 06:38:59;;;;;;;32.53;26.10;;;2.70;99.90;;;;;;4980336;28;20187;-42
2023/01/23 06:41:24;;;;;;;32.97;26.23;;;2.70;99.90;;;;;;4979952;28;20683;-45
2023/01/23 06:43:50;;;;;;;32.50;27.00;;;2.70;99.90;;;;;;4980080;28;20588;-47
2023/01/23 06:46:16;;;;;;;34.63;26.83;;;2.70;99.90;;;;;;4980096;28;20217;-45
2023/01/23 06:48:42;;;;;;;34.70;26.17;;;2.70;99.90;;;;;;4964689;28;20274;-43
2023/01/23 06:51:07;;;;;;;30.53;25.53;;;2.70;99.90;;;;;;4962664;28;20203;-44
2023/01/23 06:53:33;;;;;;;32.73;27.40;;;2.70;99.90;;;;;;4979495;28;20683;-45
2023/01/23 06:56:00;;;;;;;33.77;27.30;;;2.60;99.90;;;;;;4980007;28;20265;-45
2023/01/23 06:58:26;;;;;;;41.97;28.10;;;2.60;99.90;;;;;;4975876;28;20250;-45
2023/01/23 07:00:52;;;;;;;35.93;26.73;;;2.70;99.90;;;;;;4979654;28;20183;-45
2023/01/23 07:03:17;;;;;;;35.63;27.47;;;2.70;99.90;;;;;;4980317;28;20294;-43
2023/01/23 07:05:43;;;;;;;35.53;26.77;;;2.60;99.90;;;;;;4969831;28;20282;-44
2023/01/23 07:08:09;;;;;;;34.10;27.30;;;2.70;99.90;;;;;;4979730;28;20631;-43
2023/01/23 07:10:39;;;;;;;35.05;27.00;;;2.70;99.90;;;;;;4979654;28;20202;-44
2023/01/23 07:13:06;;;;;;;35.58;27.10;;;2.60;99.90;;;;;;4980002;28;20647;-46
2023/01/23 07:15:32;;;;;;;39.65;28.23;;;2.60;99.90;;;;;;4979649;28;20218;-44
2023/01/23 07:17:59;;;;;;;35.35;27.92;;;2.60;99.90;;;;;;4975832;28;20274;-43
2023/01/23 07:20:26;;;;;;;39.78;29.85;;;2.50;99.90;;;;;;4980451;28;20191;-44
2023/01/23 07:22:56;;;;;;;36.42;28.45;;;2.50;99.90;;;;;;4974621;28;20193;-45
2023/01/23 07:25:23;;;;;;;38.33;27.60;;;2.50;99.90;;;;;;4960731;28;20662;-47
2023/01/23 07:27:49;;;;;;;40.83;28.33;;;2.60;99.90;;;;;;4973738;28;20535;-42
2023/01/23 07:30:15;;;;;;;36.33;27.42;;;2.60;99.90;;;;;;4979765;28;20201;-44
2023/01/23 07:32:41;;;;;;;32.88;27.77;;;2.60;99.90;;;;;;4966863;28;20184;-45
2023/01/23 07:35:08;;;;;;;35.83;27.30;;;2.70;99.90;;;;;;4979651;28;20206;-47
2023/01/23 07:37:34;;;;;;;35.67;27.35;;;2.70;99.90;;;;;;4979747;28;20198;-44
2023/01/23 07:39:59;;;;;;;36.25;27.73;;;2.70;99.90;;;;;;4979838;28;20661;-46
2023/01/23 07:42:25;;;;;;;35.50;26.87;;;2.70;99.90;;;;;;4966618;28;20267;-42
2023/01/23 07:44:51;;;;;;;38.80;28.40;;;2.70;99.90;;;;;;4979686;28;20195;-49
2023/01/23 07:47:16;;;;;;;34.03;27.03;;;2.70;99.90;;;;;;4979310;28;20282;-43
2023/01/23 07:49:42;;;;;;;31.73;25.83;;;2.80;99.90;;;;;;4971509;28;20559;-46
2023/01/23 07:52:07;;;;;;;34.40;27.03;;;2.80;99.90;;;;;;4973895;28;20534;-46
2023/01/23 07:54:33;;;;;;;34.93;27.20;;;2.80;99.90;;;;;;4979447;28;20208;-44
2023/01/23 07:56:59;;;;;;;32.00;26.47;;;2.80;99.90;;;;;;4979374;28;20217;-45
2023/01/23 07:59:24;;;;;;;36.13;25.43;;;2.90;99.90;;;;;;4975390;28;20732;-44
2023/01/23 08:01:51;;;;;;;32.23;25.77;;;2.90;99.90;;;;;;4979291;28;20286;-45
2023/01/23 08:04:18;;;;;;;37.65;26.85;;;2.90;99.90;;;;;;4966998;28;20184;-46
2023/01/23 08:06:44;;;;;;;32.55;26.60;;;2.90;99.90;;;;;;4973426;28;20970;-45
2023/01/23 08:09:09;;;;;;;37.73;26.67;;;2.90;99.90;;;;;;4964053;28;20210;-45
2023/01/23 08:11:35;;;;;;;34.67;28.60;;;2.90;99.90;;;;;;4982701;28;20190;-46
2023/01/23 08:14:01;;;;;;;36.50;27.90;;;2.90;99.90;;;;;;4962760;28;20243;-45
2023/01/23 08:16:27;;;;;;;35.03;27.20;;;2.90;99.90;;;;;;4957312;28;20815;-44
2023/01/23 08:18:53;;;;;;;34.92;26.77;;;2.90;99.90;;;;;;4982760;28;20186;-46
2023/01/23 08:21:19;;;;;;;32.22;26.15;;;2.90;99.90;;;;;;4970229;28;20187;-50
2023/01/23 08:23:48;;;;;;;33.50;25.83;;;2.90;99.90;;;;;;4978476;28;20596;-44
2023/01/23 08:26:15;;;;;;;38.92;28.33;;;3.00;99.90;;;;;;4976944;28;20207;-44
2023/01/23 08:28:42;;;;;;;37.00;27.20;;;3.00;99.90;;;;;;4979986;28;20224;-43
2023/01/23 08:31:09;;;;;;;33.05;28.48;;;3.00;99.90;;;;;;4963916;28;20202;-44
2023/01/23 08:33:38;;;;;;;34.25;26.60;;;3.10;99.90;;;;;;4971410;28;20642;-44
2023/01/23 08:36:05;;;;;;;36.95;28.00;;;3.10;99.90;;;;;;4981906;28;20635;-43
2023/01/23 08:38:31;;;;;;;32.65;26.60;;;3.20;99.90;;;;;;4981398;28;20478;-45
2023/01/23 08:40:59;;;;;;;32.50;25.73;;;3.10;99.90;;;;;;4982468;28;20236;-44
2023/01/23 08:43:24;;;;;;;36.03;28.27;;;3.20;99.90;;;;;;4982672;28;20817;-42
2023/01/23 08:45:52;;;;;;;34.53;27.00;;;3.20;99.90;;;;;;4977223;28;20343;-43
2023/01/23 08:48:19;;;;;;;38.25;28.00;;;3.20;99.90;;;;;;4982568;28;20243;-43
2023/01/23 08:50:45;;;;;;;33.60;26.25;;;3.20;99.90;;;;;;4982223;28;20198;-45
2023/01/23 08:53:11;;;;;;;34.45;27.65;;;3.30;99.90;;;;;;4980898;28;20207;-44
2023/01/23 08:55:37;;;;;;;37.25;28.55;;;3.30;99.90;;;;;;4962620;28;20194;-45
2023/01/23 08:58:04;;;;;;;33.60;27.63;;;3.30;99.90;;;;;;4981860;28;20354;-44
2023/01/23 09:00:30;;;;;;;32.72;25.45;;;3.30;99.90;;;;;;4976045;28;20605;-44
2023/01/23 09:02:59;;;;;;;33.23;26.67;;;3.20;99.90;;;;;;4982229;28;20179;-44
2023/01/23 09:05:24;;;;;;;33.47;26.75;;;3.20;99.90;;;;;;4981757;28;20579;-46
2023/01/23 09:07:50;;;;;;;35.60;27.30;;;3.20;99.90;;;;;;4982093;28;20243;-44
2023/01/23 09:10:16;;;;;;;36.20;29.03;;;3.20;99.90;;;;;;4981792;28;20210;-45
2023/01/23 09:12:42;;;;;;;32.90;26.50;;;3.20;99.90;;;;;;4980729;28;20172;-42
2023/01/23 09:15:08;;;;;;;35.40;29.40;;;3.20;99.90;;;;;;4972995;28;20606;-42
2023/01/23 09:17:34;;;;;;;34.75;28.70;;;3.30;99.90;;;;;;4967518;28;20664;-49
2023/01/23 09:20:00;;;;;;;32.38;26.92;;;3.30;99.90;;;;;;4969460;28;20750;-46
2023/01/23 09:22:26;;;;;;;33.70;27.63;;;3.30;99.90;;;;;;4981542;28;20179;-45
2023/01/23 09:24:52;;;;;;;35.38;28.20;;;3.40;99.90;;;;;;4980522;28;20662;-46
2023/01/23 09:27:18;;;;;;;33.80;28.23;;;3.40;99.90;;;;;;4981482;28;20191;-42
2023/01/23 09:29:44;;;;;;;32.80;26.63;;;3.40;99.90;;;;;;4981355;28;20247;-44
2023/01/23 09:32:09;;;;;;;32.60;27.93;;;3.50;99.90;;;;;;4972176;28;20196;-45
2023/01/23 09:34:35;;;;;;;30.33;26.37;;;3.50;99.90;;;;;;4978062;28;20267;-47
2023/01/23 09:37:01;;;;;;;34.50;27.63;;;3.60;99.90;;;;;;4981887;28;20462;-44
2023/01/23 09:39:26;;;;;;;31.40;27.20;;;3.60;99.90;;;;;;4981624;28;20366;-45
2023/01/23 09:41:52;;;;;;;32.30;27.07;;;3.60;99.90;;;;;;4980442;28;20235;-44
2023/01/23 09:44:39;;;;;;;31.50;25.83;;;3.70;99.90;;;;;;4971854;28;20194;-48
2023/01/23 09:47:27;;;;;;;35.30;26.88;;;3.70;99.90;;;;;;4981222;28;20405;-44
2023/01/23 09:50:03;;;;;;;32.35;26.20;;;3.70;99.90;;;;;;4981588;28;20278;-44
2023/01/23 09:52:34;;;;;;;29.77;26.00;;;3.80;99.90;;;;;;4976881;28;20192;-45
2023/01/23 09:55:17;;;;;;;30.00;26.48;;;3.80;99.90;;;;;;4980264;28;20242;-45
2023/01/23 09:57:55;;;;;;;28.35;25.10;;;3.80;99.90;;;;;;4976085;28;20216;-43
2023/01/23 10:00:32;;;;;;;28.67;25.42;;;3.80;99.90;;;;;;4974020;28;20804;-46
2023/01/23 10:03:03;;;;;;;29.90;25.08;;;3.80;99.90;;;;;;4980554;28;20601;-43
2023/01/23 10:05:40;;;;;;;31.70;27.23;;;3.80;99.90;;;;;;4979623;28;20184;-45
2023/01/23 10:08:33;;;;;;;29.20;26.20;;;3.80;99.90;;;;;;4980858;28;20179;-43
2023/01/23 10:11:12;;;;;;;31.05;25.90;;;3.70;99.90;;;;;;4980828;28;20189;-46
2023/01/23 10:14:19;;;;;;;30.10;25.50;;;3.80;99.90;;;;;;4981041;28;20632;-45
2023/01/23 10:17:08;;;;;;;34.17;29.70;;;3.90;99.90;;;;;;4980879;28;20232;-44
2023/01/23 10:19:43;;;;;;;31.95;28.50;;;3.90;99.90;;;;;;4971468;28;20186;-45
2023/01/23 10:22:38;;;;;;;31.33;27.75;;;4.00;99.90;;;;;;4966634;28;20202;-44
2023/01/23 10:25:26;;;;;;;28.95;25.50;;;4.00;99.90;;;;;;4967033;28;20186;-44
2023/01/23 10:27:57;;;;;;;29.80;26.83;;;4.10;99.90;;;;;;4973011;28;20214;-46
2023/01/23 10:30:33;;;;;;;31.10;27.80;;;4.10;99.90;;;;;;4960636;28;20218;-49
2023/01/23 10:33:01;;;;;;;30.20;26.95;;;4.10;99.90;;;;;;4964303;28;20182;-45
2023/01/23 10:35:39;;;;;;;34.22;29.20;;;4.10;99.90;;;;;;4979980;28;20246;-45
2023/01/23 10:38:42;;;;;;;28.08;25.23;;;4.10;99.90;;;;;;4969212;28;20186;-44
2023/01/23 10:41:13;;;;;;;29.30;26.20;;;4.10;99.90;;;;;;4976755;28;20259;-45
2023/01/23 10:43:40;;;;;;;30.02;26.25;;;4.00;99.90;;;;;;4978683;28;20186;-43
2023/01/23 10:46:22;;;;;;;32.53;27.77;;;4.10;99.90;;;;;;4976224;28;20198;-45
2023/01/23 10:48:52;;;;;;;32.45;27.90;;;4.10;99.90;;;;;;4978722;28;20213;-47
2023/01/23 10:51:37;;;;;;;29.58;26.35;;;4.20;99.90;;;;;;4979880;28;20222;-44
2023/01/23 10:54:08;;;;;;;28.63;25.63;;;4.20;99.90;;;;;;4977044;28;20206;-45
2023/01/23 10:56:37;;;;;;;29.77;25.75;;;4.20;99.90;;;;;;4969441;28;20193;-45
2023/01/23 10:59:04;;;;;;;28.60;24.48;;;4.20;99.90;;;;;;4972960;28;20223;-45
2023/01/23 11:01:35;;;;;;;29.17;24.65;;;4.30;99.90;;;;;;4980097;28;20815;-44
2023/01/23 11:04:20;;;;;;;33.08;25.20;;;4.30;99.90;;;;;;4978363;28;20245;-47
2023/01/23 11:07:07;;;;;;;33.03;27.83;;;4.30;99.90;;;;;;4979569;28;20194;-45
2023/01/23 11:09:49;;;;;;;28.98;25.88;;;4.30;99.90;;;;;;4978522;28;20194;-44
2023/01/23 11:12:19;;;;;;;31.08;26.70;;;4.30;99.90;;;;;;4975593;28;20194;-48
2023/01/23 11:14:45;;;;;;;32.92;27.88;;;4.40;99.90;;;;;;4979493;28;20218;-46
2023/01/23 11:17:20;;;;;;;31.43;27.60;;;4.50;99.90;;;;;;4978189;28;20202;-44
2023/01/23 11:19:48;;;;;;;31.98;26.63;;;4.50;99.90;;;;;;4971728;28;20467;-45
2023/01/23 11:22:26;;;;;;;31.10;27.02;;;4.50;99.90;;;;;;4979709;28;20187;-46
2023/01/23 11:24:52;;;;;;;32.28;27.40;;;4.50;99.90;;;;;;4978292;28;20194;-48
2023/01/23 11:27:25;;;;;;;30.40;26.50;;;4.60;99.90;;;;;;4969489;28;20198;-47
2023/01/23 11:29:59;;;;;;;34.35;28.48;;;4.50;99.90;;;;;;4959830;28;20559;-46
2023/01/23 11:32:27;;;;;;;35.15;28.30;;;4.50;99.90;;;;;;4968420;28;20226;-45
2023/01/23 11:35:04;;;;;;;32.38;27.50;;;4.40;99.90;;;;;;4977583;28;20214;-47
2023/01/23 11:37:36;;;;;;;32.70;26.33;;;4.40;99.90;;;;;;4979750;28;20190;-50
2023/01/23 11:40:10;;;;;;;31.20;27.50;;;4.50;99.90;;;;;;4979736;28;20336;-45
2023/01/23 11:42:39;;;;;;;35.33;27.80;;;4.40;99.90;;;;;;4979150;28;20597;-46
2023/01/23 11:45:26;;;;;;;31.10;26.60;;;4.40;99.90;;;;;;4983291;28;20675;-47
2023/01/23 11:47:59;;;;;;;31.83;27.58;;;4.40;99.90;;;;;;4983387;28;20718;-48
2023/01/23 11:50:33;;;;;;;29.70;26.13;;;4.40;99.90;;;;;;4982183;28;20274;-50
2023/01/23 11:53:27;;;;;;;32.00;28.17;;;4.30;99.90;;;;;;4983272;28;20190;-45
2023/01/23 11:56:08;;;;;;;31.42;27.40;;;4.30;99.90;;;;;;4972265;28;20309;-46
2023/01/23 11:59:11;;;;;;;31.35;26.67;;;4.20;99.90;;;;;;4977678;28;20180;-47
2023/01/23 12:02:00;;;;;;;33.42;27.75;;;4.10;99.90;;;;;;4983018;28;20196;-44
2023/01/23 12:04:40;;;;;;;30.92;26.98;;;4.00;99.90;;;;;;4981792;28;20201;-49
2023/01/23 12:07:20;;;;;;;31.25;26.73;;;4.20;99.90;;;;;;4982937;28;20187;-45
2023/01/23 12:09:58;;;;;;;33.67;27.02;;;4.20;99.90;;;;;;4983150;28;20199;-49
2023/01/23 12:12:54;;;;;;;29.25;25.48;;;4.30;99.90;;;;;;4970059;28;20190;-47
2023/01/23 12:15:41;;;;;;;29.50;26.40;;;4.40;99.90;;;;;;4982899;28;20211;-45
2023/01/23 12:18:26;;;;;;;31.48;26.80;;;4.40;99.90;;;;;;4974203;28;20270;-46
2023/01/23 12:21:11;;;;;;;29.40;25.95;;;4.40;99.90;;;;;;4970486;28;20244;-45
2023/01/23 12:23:39;;;;;;;29.80;26.02;;;4.30;99.90;;;;;;4982776;28;20196;-44
2023/01/23 12:26:18;;;;;;;29.95;25.60;;;4.30;99.90;;;;;;4982890;28;20199;-46
2023/01/23 12:29:21;;;;;;;29.67;25.40;;;4.40;99.90;;;;;;4960711;28;20223;-47
2023/01/23 12:31:52;;;;;;;32.35;27.98;;;4.50;99.90;;;;;;4976464;28;20187;-47
2023/01/23 12:34:33;;;;;;;34.58;27.98;;;4.40;99.90;;;;;;4976472;28;20418;-45
2023/01/23 12:37:29;;;;;;;33.55;27.40;;;4.40;99.90;;;;;;4982654;28;20190;-43
2023/01/23 12:40:00;;;;;;;28.10;24.92;;;4.50;99.90;;;;;;4982115;28;20247;-44
2023/01/23 12:42:42;;;;;;;30.98;27.77;;;4.50;99.90;;;;;;4975658;28;20238;-46
2023/01/23 12:45:21;;;;;;;40.13;31.02;;;4.50;99.90;;;;;;4982562;28;20249;-46
2023/01/23 12:47:54;;;;;;;31.63;26.35;;;4.60;99.90;;;;;;4982336;28;20260;-44
2023/01/23 12:50:23;;;;;;;38.00;32.10;;;4.50;99.90;;;;;;4982304;28;20591;-46
2023/01/23 12:52:58;;;;;;;31.10;27.33;;;4.40;99.90;;;;;;4982227;28;20192;-45
2023/01/23 12:55:28;;;;;;;33.95;27.38;;;4.40;99.90;;;;;;4981031;28;20220;-45